Ana Sayfa
METAR-TAF:

METAR-TAF

Havaalanları :

Jasper County Airport (Bell Field)

Jasper, Teksas, Amerika Birleşik Devletleri

Enlem: 30-53-08N, Boylam: 094-02-05W, yükseklik: 65 m

Güncel hava durumu gözlemi

Rapor saat 06:55 UTC de 19 dakika önce yapıldı.
Sakin rüzgar
Sıcaklık 17°C
Nem 100%
Basınç 1014 hPa
Görüş mesafesi: 6.4 km
Açık gökyüzü
Pus

METAR: KJAS 180655Z AUTO 00000KT 4SM BR CLR 17/17 A2994 RMK AO2 P0001 T01680167

Saat: 02:14 (07:14 UTC)


TAF: eksik

4.000'den fazla havaalanı için hava durumu gözlemleri ve tahminleri (METAR ve TAF raporları).

Kullanılabilir istasyonlar harita üzerinde sarı ve kırmızı noktalarla gösterilir.

İstasyonun adını görmek için fareyi noktanın üzerinde gezdirin.

Sonrasında hava gözlem ve tahminlerini görmek için tıklayın.

Haritayı değiştirmek için: yaklaştırmak için siyah artı işaretli yeşil düğmeye ve uzaklaştırmak için de eksi işaretli düğmeye hızla tıklayın; bitişik haritalar için yeşil okları kullanın.


METAR-TAF: